Killeen/Gray AAF, Texas
Current Conditions -  °F | °C
As of 4:56 AM on Friday 24 Oct 2014 (Local Time) from KHLR Reporting Station
Clear Clear  
Wind Chill: 64°   Ceiling: Unl
Heat Index: 64°   Visibility: 10mi
Dew Point: 56°   Wind: 3mph
Humidity: 75%   Direction: 130°SE
Pressure: 30.13"   Gusts: NA
Location:  31.07°N, 97.83°W
Report Text: KHLR 240956Z 13003KT 10SM CLR 18/13 A3013 RMK AO2 SLPNO T01780133 $
Loading
Personal Weather Stations






























Interactive Weather Map
Tropical Storm Tracking
New forecast layout! Learn more

10-Day Weather Forecast

Advertisements
Track Severe Weather on mobile